Terminal Aerodrome Forecast
Issued by NWS Los Angeles, CA

Home | Current Version | Previous Version | Text Only | Print | Product List | Glossary On
Versions: 1 2 3 4 5 6 7 8 9 10 11 12 13 14 15
000
FTUS46 KLOX 272300
TAFSMX
TAF
KSMX 272329Z 2800/2824 31009KT P6SM SCT250
     FM280300 VRB03KT P6SM BKN250
     FM281100 00000KT 6SM BR SCT017 BKN200
     FM281600 VRB03KT P6SM BKN150 BKN200
     FM282100 31010KT P6SM SCT250=

USA.gov is the U.S. government's official web portal to all federal, state and local government web resources and services.